createdAt,value
2022-09-14T00:01:40.381Z,0.90
2022-09-14T00:04:13.596Z,1.00
2022-09-14T00:06:41.192Z,0.70
2022-09-14T00:09:12.950Z,0.80
2022-09-14T00:11:41.398Z,0.80
2022-09-14T00:14:08.214Z,0.90
2022-09-14T00:16:40.160Z,0.90
2022-09-14T00:19:17.058Z,0.70
2022-09-14T00:21:43.749Z,0.80
2022-09-14T00:24:12.219Z,0.60
2022-09-14T00:26:38.972Z,0.70
2022-09-14T00:29:07.337Z,0.60
2022-09-14T00:31:39.576Z,0.70
2022-09-14T00:34:11.232Z,0.60
2022-09-14T00:36:47.314Z,0.70
2022-09-14T00:39:15.781Z,0.90
2022-09-14T00:41:46.213Z,0.80
2022-09-14T00:44:12.985Z,0.60
2022-09-14T00:46:52.666Z,0.70
2022-09-14T00:49:35.858Z,0.70
2022-09-14T00:52:10.971Z,0.90
2022-09-14T00:54:52.556Z,1.00
2022-09-14T00:57:20.317Z,0.80
2022-09-14T00:59:51.226Z,0.70
2022-09-14T01:02:21.465Z,0.70
2022-09-14T01:04:50.025Z,1.20
2022-09-14T01:07:44.217Z,0.80
2022-09-14T01:10:43.028Z,0.60
2022-09-14T01:13:41.819Z,0.70
2022-09-14T01:16:58.345Z,0.70
2022-09-14T01:20:07.964Z,1.00
2022-09-14T01:22:58.957Z,0.60
2022-09-14T01:25:59.187Z,0.90
2022-09-14T01:28:41.502Z,0.60
2022-09-14T01:31:58.968Z,0.90
2022-09-14T01:34:49.823Z,0.70
2022-09-14T01:37:27.723Z,0.60
2022-09-14T01:40:07.525Z,0.80
2022-09-14T01:42:36.561Z,0.70
2022-09-14T01:45:11.395Z,0.80
2022-09-14T01:47:51.449Z,0.60
2022-09-14T01:50:34.018Z,0.60
2022-09-14T01:53:23.744Z,0.80
2022-09-14T01:56:20.233Z,0.50
2022-09-14T01:58:56.861Z,0.60
2022-09-14T02:01:37.396Z,0.80
2022-09-14T02:04:11.920Z,0.60
2022-09-14T02:06:48.713Z,0.50
2022-09-14T02:09:26.462Z,0.60
2022-09-14T02:11:55.769Z,0.70
2022-09-14T02:14:23.434Z,0.80
2022-09-14T02:16:50.445Z,0.60
2022-09-14T02:19:21.716Z,0.90
2022-09-14T02:21:50.491Z,0.50
2022-09-14T02:24:18.707Z,0.90
2022-09-14T02:26:49.667Z,0.70
2022-09-14T02:29:16.465Z,0.70
2022-09-14T02:32:10.888Z,0.50
2022-09-14T02:34:57.398Z,0.80
2022-09-14T02:38:05.750Z,1.00
2022-09-14T02:40:37.603Z,0.70
2022-09-14T02:43:48.554Z,0.70
2022-09-14T02:46:26.818Z,0.70
2022-09-14T02:49:27.771Z,0.60
2022-09-14T02:52:15.979Z,0.70
2022-09-14T02:54:45.431Z,0.60
2022-09-14T02:57:12.538Z,0.70
2022-09-14T02:59:39.540Z,0.60
2022-09-14T03:02:06.393Z,0.70
2022-09-14T03:04:33.132Z,0.60
2022-09-14T03:06:59.943Z,0.70
2022-09-14T03:09:26.676Z,0.60
2022-09-14T03:11:53.405Z,0.60
2022-09-14T03:14:20.449Z,1.00
2022-09-14T03:16:47.183Z,1.00
2022-09-14T03:19:13.871Z,0.80
2022-09-14T03:21:40.507Z,0.60
2022-09-14T03:24:07.803Z,0.50
2022-09-14T03:26:37.022Z,0.70
2022-09-14T03:29:05.698Z,0.50
2022-09-14T03:31:34.012Z,0.70
2022-09-14T03:34:02.613Z,0.60
2022-09-14T03:36:31.636Z,0.90
2022-09-14T03:39:01.710Z,0.70
2022-09-14T03:41:29.268Z,0.70
2022-09-14T03:43:58.856Z,0.70
2022-09-14T03:46:26.452Z,0.80
2022-09-14T03:48:55.862Z,0.70
2022-09-14T03:51:23.570Z,0.80
2022-09-14T03:53:50.402Z,0.90
2022-09-14T03:56:20.889Z,0.70
2022-09-14T03:58:49.120Z,0.80
2022-09-14T04:01:20.129Z,0.90
2022-09-14T04:03:48.089Z,1.20
2022-09-14T04:06:18.579Z,0.60
2022-09-14T04:08:47.409Z,0.80
2022-09-14T04:11:23.969Z,0.90
2022-09-14T04:13:52.917Z,1.10
2022-09-14T04:16:21.433Z,1.40
2022-09-14T04:18:48.801Z,0.70
2022-09-14T04:21:19.423Z,1.00
2022-09-14T04:24:10.556Z,0.70
2022-09-14T04:26:34.600Z,1.20
2022-09-14T04:29:01.672Z,0.90
2022-09-14T04:31:28.862Z,0.90
2022-09-14T04:33:57.464Z,1.00
2022-09-14T04:36:30.874Z,0.70
2022-09-14T04:39:01.573Z,0.80
2022-09-14T04:41:31.042Z,0.80
2022-09-14T04:43:59.395Z,0.70
2022-09-14T04:46:34.967Z,0.70
2022-09-14T04:49:01.854Z,0.90
2022-09-14T04:51:31.684Z,0.90
2022-09-14T04:54:00.416Z,0.70
2022-09-14T04:56:31.315Z,1.10
2022-09-14T04:59:01.940Z,0.90
2022-09-14T05:01:34.270Z,1.00
2022-09-14T05:04:01.627Z,0.70
2022-09-14T05:06:33.352Z,1.00
2022-09-14T05:09:03.771Z,1.00
2022-09-14T05:11:34.282Z,1.10
2022-09-14T05:14:02.414Z,1.00
2022-09-14T05:16:33.751Z,1.10
2022-09-14T05:19:05.271Z,1.00
2022-09-14T05:21:35.983Z,1.10
2022-09-14T05:24:08.187Z,1.20
2022-09-14T05:26:35.067Z,1.40
2022-09-14T05:29:03.435Z,1.30
2022-09-14T05:31:32.232Z,1.50
2022-09-14T05:33:59.927Z,1.20
2022-09-14T05:36:26.939Z,1.20
2022-09-14T05:38:54.074Z,1.30
2022-09-14T05:41:21.368Z,1.30
2022-09-14T05:43:48.501Z,1.40
2022-09-14T05:46:22.284Z,1.20
2022-09-14T05:48:51.858Z,1.20
2022-09-14T05:51:25.435Z,1.40
2022-09-14T05:53:58.815Z,1.40
2022-09-14T05:56:29.776Z,1.70
2022-09-14T05:58:56.617Z,1.60
2022-09-14T06:01:30.176Z,1.00
2022-09-14T06:04:02.354Z,1.40
2022-09-14T06:06:31.944Z,1.50
2022-09-14T06:08:59.790Z,1.30
2022-09-14T06:11:30.331Z,1.20
2022-09-14T06:13:57.588Z,1.50
2022-09-14T06:16:27.507Z,1.60
2022-09-14T06:18:57.248Z,1.30
2022-09-14T06:21:31.573Z,1.50
2022-09-14T06:23:59.677Z,1.70
2022-09-14T06:26:27.014Z,1.50
2022-09-14T06:28:53.674Z,1.70
2022-09-14T06:31:22.742Z,1.60
2022-09-14T06:33:51.878Z,1.50
2022-09-14T06:36:25.777Z,1.60
2022-09-14T06:38:53.772Z,1.60
2022-09-14T06:41:29.581Z,1.50
2022-09-14T06:43:59.638Z,1.70
2022-09-14T06:46:31.141Z,1.70
2022-09-14T06:49:20.745Z,1.90
2022-09-14T06:51:48.029Z,1.70
2022-09-14T06:54:17.387Z,1.90
2022-09-14T06:56:46.670Z,1.80
2022-09-14T06:59:16.675Z,1.90
2022-09-14T07:01:53.723Z,2.20
2022-09-14T07:04:21.623Z,2.10
2022-09-14T07:06:50.415Z,1.40
2022-09-14T07:09:19.631Z,1.70
2022-09-14T07:11:46.703Z,1.40
2022-09-14T07:14:13.388Z,1.60
2022-09-14T07:16:41.206Z,1.40
2022-09-14T07:19:13.082Z,1.80
2022-09-14T07:21:41.193Z,1.80
2022-09-14T07:24:12.348Z,1.40
2022-09-14T07:26:42.484Z,1.50
2022-09-14T07:29:20.391Z,1.40
2022-09-14T07:31:53.466Z,1.30
2022-09-14T07:34:20.794Z,1.70
2022-09-14T07:36:47.598Z,1.30
2022-09-14T07:39:17.295Z,1.30
2022-09-14T07:41:44.689Z,1.40
2022-09-14T07:44:16.361Z,1.40
2022-09-14T07:46:45.526Z,1.40
2022-09-14T07:49:14.241Z,1.20
2022-09-14T07:51:41.557Z,1.70
2022-09-14T07:54:12.785Z,1.70
2022-09-14T07:56:40.765Z,2.00
2022-09-14T08:01:54.284Z,1.80
2022-09-14T08:04:21.281Z,2.20
2022-09-14T08:06:48.020Z,2.00
2022-09-14T08:09:15.499Z,2.50
2022-09-14T08:11:42.610Z,2.20
2022-09-14T08:14:12.926Z,2.30
2022-09-14T08:16:41.450Z,2.10
2022-09-14T08:19:15.551Z,2.60
2022-09-14T08:21:46.838Z,2.70
2022-09-14T08:24:19.163Z,2.40
2022-09-14T08:26:48.117Z,2.60
2022-09-14T08:29:19.077Z,2.60
2022-09-14T08:31:47.893Z,2.40
2022-09-14T08:34:17.111Z,2.20
2022-09-14T08:36:47.510Z,1.80
2022-09-14T08:39:18.329Z,1.90
2022-09-14T08:42:00.310Z,2.10
2022-09-14T08:44:41.755Z,2.20
2022-09-14T08:47:18.271Z,1.90
2022-09-14T08:49:57.449Z,2.70
2022-09-14T08:52:35.177Z,2.40
2022-09-14T08:55:37.681Z,2.90
2022-09-14T08:58:10.516Z,2.30
2022-09-14T09:00:51.966Z,2.30
2022-09-14T09:03:36.706Z,2.40
2022-09-14T09:06:12.858Z,2.50
2022-09-14T09:09:18.353Z,2.80
2022-09-14T09:11:50.926Z,2.20
2022-09-14T09:14:23.689Z,1.90
2022-09-14T09:16:56.326Z,1.40
2022-09-14T09:19:37.224Z,1.50
2022-09-14T09:22:12.366Z,1.90
2022-09-14T09:24:55.112Z,1.40
2022-09-14T09:27:25.214Z,1.20
2022-09-14T09:29:52.296Z,1.50
2022-09-14T09:32:25.265Z,1.70
2022-09-14T09:35:19.336Z,1.80
2022-09-14T09:37:54.542Z,1.80
2022-09-14T09:40:38.114Z,1.90
2022-09-14T09:43:11.961Z,2.30
2022-09-14T09:45:53.580Z,2.50
2022-09-14T09:48:27.240Z,2.50
2022-09-14T09:51:26.530Z,1.90
2022-09-14T09:54:00.605Z,2.10
2022-09-14T09:56:34.986Z,2.00
2022-09-14T09:59:02.453Z,2.00
2022-09-14T10:01:35.538Z,2.20
2022-09-14T10:04:03.140Z,2.20
2022-09-14T10:06:31.021Z,2.10
2022-09-14T10:08:59.333Z,1.60
2022-09-14T10:11:37.734Z,2.00
2022-09-14T10:14:19.325Z,2.30
2022-09-14T10:16:46.162Z,2.20
2022-09-14T10:19:20.123Z,1.70
2022-09-14T10:22:24.380Z,1.60
2022-09-14T10:25:04.924Z,1.30
2022-09-14T10:28:00.569Z,1.70
2022-09-14T10:30:38.211Z,1.80
2022-09-14T10:33:10.708Z,1.80
2022-09-14T10:36:14.618Z,1.90
2022-09-14T10:38:58.422Z,2.10
2022-09-14T10:41:39.079Z,1.60
2022-09-14T10:44:27.611Z,1.30
2022-09-14T10:47:31.657Z,1.30
2022-09-14T10:50:32.466Z,1.30
2022-09-14T10:53:18.453Z,1.00
2022-09-14T10:56:27.101Z,0.80
2022-09-14T10:58:56.497Z,0.80
2022-09-14T11:01:57.694Z,0.60
2022-09-14T11:04:52.174Z,0.70
2022-09-14T11:07:36.972Z,0.80
2022-09-14T11:10:32.791Z,0.70
2022-09-14T11:13:42.901Z,0.70
2022-09-14T11:16:47.683Z,0.60
2022-09-14T11:19:38.695Z,0.60
2022-09-14T11:22:46.844Z,0.90
2022-09-14T11:25:43.497Z,0.70
2022-09-14T11:28:19.341Z,0.60
2022-09-14T11:30:56.541Z,0.70
2022-09-14T11:33:37.303Z,0.60
2022-09-14T11:36:23.421Z,0.60
2022-09-14T11:39:07.031Z,0.70
2022-09-14T11:41:49.186Z,0.50
2022-09-14T11:44:28.465Z,0.50
2022-09-14T11:47:23.382Z,0.50
2022-09-14T11:50:13.490Z,0.70
2022-09-14T11:52:40.662Z,0.90
2022-09-14T11:55:18.162Z,1.10
2022-09-14T11:57:47.205Z,0.90
2022-09-14T12:00:20.265Z,0.90
2022-09-14T12:03:21.500Z,1.00
2022-09-14T12:05:50.147Z,0.90
2022-09-14T12:08:31.838Z,1.00
2022-09-14T12:11:00.808Z,0.50
2022-09-14T12:13:27.563Z,0.80
2022-09-14T12:16:07.839Z,0.80
2022-09-14T12:18:40.228Z,0.70
2022-09-14T12:21:25.824Z,0.90
2022-09-14T12:23:57.762Z,0.70
2022-09-14T12:26:32.560Z,0.60
2022-09-14T12:29:33.683Z,0.70
2022-09-14T12:32:05.162Z,0.90
2022-09-14T12:34:33.742Z,0.80
2022-09-14T12:37:25.005Z,0.90
2022-09-14T12:40:29.225Z,0.60
2022-09-14T12:42:56.145Z,1.00
2022-09-14T12:45:51.761Z,0.80
2022-09-14T12:48:58.881Z,0.70
2022-09-14T12:51:31.641Z,0.80
2022-09-14T12:53:58.228Z,1.00
2022-09-14T12:56:37.160Z,0.80
2022-09-14T12:59:56.772Z,0.80
2022-09-14T13:02:59.102Z,0.90
2022-09-14T13:05:30.551Z,1.20
2022-09-14T13:07:57.600Z,1.30
2022-09-14T13:10:37.963Z,1.30
2022-09-14T13:13:30.303Z,1.40
2022-09-14T13:16:03.507Z,1.40
2022-09-14T13:18:37.928Z,1.60
2022-09-14T13:21:18.350Z,1.40
2022-09-14T13:23:45.785Z,2.00
2022-09-14T13:26:25.956Z,1.80
2022-09-14T13:28:56.121Z,1.30
2022-09-14T13:31:35.270Z,1.10
2022-09-14T13:34:05.555Z,1.20
2022-09-14T13:36:40.822Z,0.90
2022-09-14T13:39:37.201Z,0.80
2022-09-14T13:42:06.191Z,1.00
2022-09-14T13:44:42.131Z,0.80
2022-09-14T13:47:14.741Z,0.80
2022-09-14T13:49:45.184Z,0.90
2022-09-14T13:52:21.974Z,1.10
2022-09-14T13:55:29.238Z,1.00
2022-09-14T13:58:16.461Z,1.60
2022-09-14T14:01:04.592Z,1.60
2022-09-14T14:03:50.589Z,1.60
2022-09-14T14:06:35.046Z,2.10
2022-09-14T14:09:10.757Z,2.10
2022-09-14T14:11:53.713Z,3.00
2022-09-14T14:14:30.832Z,2.20
2022-09-14T14:17:13.378Z,2.50
2022-09-14T14:19:41.389Z,3.00
2022-09-14T14:22:13.984Z,3.00
2022-09-14T14:25:12.401Z,2.80
2022-09-14T14:27:37.748Z,2.60
2022-09-14T14:30:19.153Z,3.00
2022-09-14T14:32:54.781Z,2.90
2022-09-14T14:35:31.465Z,3.40
2022-09-14T14:37:59.229Z,3.70
2022-09-14T14:40:27.835Z,3.80
2022-09-14T14:42:58.234Z,4.40
2022-09-14T14:45:27.470Z,3.80
2022-09-14T14:47:55.896Z,4.30
2022-09-14T14:50:33.555Z,4.20
2022-09-14T14:53:02.305Z,4.10
2022-09-14T14:55:32.813Z,4.10
2022-09-14T14:58:03.984Z,4.60
2022-09-14T15:00:34.407Z,4.30
2022-09-14T15:03:01.244Z,4.00
2022-09-14T15:05:27.912Z,4.50
2022-09-14T15:07:56.441Z,4.40
2022-09-14T15:10:27.861Z,4.10
2022-09-14T15:12:55.003Z,4.20
2022-09-14T15:15:26.131Z,4.10
2022-09-14T15:17:53.734Z,4.00
2022-09-14T15:20:20.934Z,3.70
2022-09-14T15:22:48.967Z,5.10
2022-09-14T15:25:18.204Z,4.00
2022-09-14T15:27:46.035Z,4.10
2022-09-14T15:30:15.351Z,5.10
2022-09-14T15:32:42.257Z,5.10
2022-09-14T15:35:13.619Z,4.20
2022-09-14T15:37:41.837Z,3.90
2022-09-14T15:40:09.904Z,3.30
2022-09-14T15:42:36.609Z,4.10
2022-09-14T15:45:04.821Z,3.30
2022-09-14T15:47:35.626Z,3.70
2022-09-14T15:50:03.840Z,2.80
2022-09-14T15:52:30.545Z,3.70
2022-09-14T15:54:57.344Z,2.50
2022-09-14T15:57:24.102Z,3.10
2022-09-14T15:59:54.437Z,2.80
2022-09-14T16:02:21.479Z,3.60
2022-09-14T16:04:48.693Z,3.00
2022-09-14T16:07:16.443Z,2.80
2022-09-14T16:09:43.370Z,2.50
2022-09-14T16:12:13.082Z,2.90
2022-09-14T16:14:40.050Z,2.70
2022-09-14T16:17:08.740Z,2.60
2022-09-14T16:19:35.923Z,3.50
2022-09-14T16:22:03.780Z,4.10
2022-09-14T16:24:31.892Z,2.50
2022-09-14T16:26:59.413Z,2.90
2022-09-14T16:29:26.892Z,3.70
2022-09-14T16:31:54.072Z,2.70
2022-09-14T16:34:28.799Z,2.80
2022-09-14T16:36:58.808Z,2.60
2022-09-14T16:39:34.943Z,3.60
2022-09-14T16:42:02.206Z,2.80
2022-09-14T16:44:29.454Z,2.20
2022-09-14T16:46:58.558Z,2.70
2022-09-14T16:49:28.142Z,2.80
2022-09-14T16:51:56.873Z,2.20
2022-09-14T16:54:26.170Z,2.10
2022-09-14T16:56:58.172Z,2.10
2022-09-14T16:59:26.230Z,1.80
2022-09-14T17:01:55.195Z,1.90
2022-09-14T17:04:24.333Z,1.60
2022-09-14T17:06:53.128Z,2.10
2022-09-14T17:09:24.110Z,2.00
2022-09-14T17:11:52.105Z,1.80
2022-09-14T17:14:23.682Z,1.80
2022-09-14T17:16:50.952Z,2.00
2022-09-14T17:19:18.623Z,2.10
2022-09-14T17:21:47.217Z,2.00
2022-09-14T17:24:16.078Z,2.10
2022-09-14T17:26:43.324Z,2.10
2022-09-14T17:29:10.570Z,2.00
2022-09-14T17:31:42.290Z,2.20
2022-09-14T17:34:12.322Z,2.40
2022-09-14T17:36:39.916Z,2.10
2022-09-14T17:39:11.737Z,2.50
2022-09-14T17:41:42.806Z,2.00
2022-09-14T17:44:14.128Z,2.70
2022-09-14T17:46:51.142Z,2.80
2022-09-14T17:49:19.469Z,2.80
2022-09-14T17:51:46.590Z,2.40
2022-09-14T17:54:13.599Z,2.10
2022-09-14T17:56:40.611Z,1.90
2022-09-14T17:59:15.378Z,2.10
2022-09-14T18:01:42.122Z,3.20
2022-09-14T18:04:12.543Z,2.70
2022-09-14T18:06:50.149Z,2.30
2022-09-14T18:09:21.321Z,2.10
2022-09-14T18:11:50.938Z,2.40
2022-09-14T18:14:18.600Z,2.70
2022-09-14T18:16:45.858Z,2.50
2022-09-14T18:19:14.919Z,2.80
2022-09-14T18:21:42.884Z,2.70
2022-09-14T18:24:12.050Z,2.40
2022-09-14T18:26:38.829Z,2.80
2022-09-14T18:29:05.512Z,3.00
2022-09-14T18:31:32.407Z,3.10
2022-09-14T18:34:00.890Z,4.00
2022-09-14T18:36:29.881Z,3.50
2022-09-14T18:38:58.792Z,3.70
2022-09-14T18:41:29.538Z,3.30
2022-09-14T18:43:56.728Z,3.20
2022-09-14T18:46:27.795Z,3.60
2022-09-14T18:48:58.739Z,3.80
2022-09-14T18:51:27.723Z,3.60
2022-09-14T18:54:05.851Z,4.30
2022-09-14T18:56:35.216Z,3.70
2022-09-14T18:59:05.093Z,3.70
2022-09-14T19:01:37.145Z,3.50
2022-09-14T19:04:10.749Z,3.20
2022-09-14T19:06:41.495Z,3.60
2022-09-14T19:09:09.313Z,3.80
2022-09-14T19:11:36.422Z,3.90
2022-09-14T19:14:10.257Z,4.00
2022-09-14T19:16:40.516Z,3.90
2022-09-14T19:19:09.173Z,4.20
2022-09-14T19:21:35.925Z,4.10
2022-09-14T19:24:10.986Z,3.70
2022-09-14T19:26:45.310Z,4.20
2022-09-14T19:29:17.385Z,3.90
2022-09-14T19:31:44.309Z,4.30
2022-09-14T19:34:12.081Z,3.90
2022-09-14T19:36:38.935Z,4.10
2022-09-14T19:39:05.637Z,4.50
2022-09-14T19:41:34.662Z,4.50
2022-09-14T19:44:03.850Z,4.60
2022-09-14T19:46:33.632Z,4.80
2022-09-14T19:49:00.540Z,4.20
2022-09-14T19:51:30.317Z,4.60
2022-09-14T19:54:00.359Z,4.90
2022-09-14T19:56:32.211Z,5.20
2022-09-14T19:59:02.303Z,5.20
2022-09-14T20:01:32.074Z,5.80
2022-09-14T20:03:59.106Z,6.40
2022-09-14T20:06:33.950Z,6.20
2022-09-14T20:09:03.600Z,4.90
2022-09-14T20:11:33.114Z,4.90
2022-09-14T20:14:05.783Z,5.00
2022-09-14T20:16:37.302Z,5.20
2022-09-14T20:19:18.340Z,5.40
2022-09-14T20:21:47.596Z,5.40
2022-09-14T20:24:19.101Z,4.80
2022-09-14T20:26:48.924Z,5.00
2022-09-14T20:29:18.537Z,5.70
2022-09-14T20:31:46.626Z,5.20
2022-09-14T20:34:16.445Z,5.20
2022-09-14T20:36:43.238Z,5.50
2022-09-14T20:39:11.000Z,5.10
2022-09-14T20:41:38.161Z,4.90
2022-09-14T20:44:05.896Z,5.00
2022-09-14T20:46:42.388Z,4.70
2022-09-14T20:49:16.340Z,4.90
2022-09-14T20:51:44.319Z,4.80
2022-09-14T20:54:17.077Z,4.70
2022-09-14T20:56:46.374Z,6.00
2022-09-14T20:59:16.988Z,5.30
2022-09-14T21:01:47.262Z,5.40
2022-09-14T21:04:18.543Z,4.80
2022-09-14T21:06:48.809Z,4.80
2022-09-14T21:09:18.172Z,5.60
2022-09-14T21:11:47.010Z,5.10
2022-09-14T21:14:16.425Z,5.90
2022-09-14T21:16:46.417Z,6.40
2022-09-14T21:19:23.775Z,6.90
2022-09-14T21:21:51.635Z,6.40
2022-09-14T21:24:20.882Z,6.00
2022-09-14T21:26:48.340Z,6.00
2022-09-14T21:29:22.875Z,8.10
2022-09-14T21:31:49.879Z,9.90
2022-09-14T21:34:17.912Z,10.40
2022-09-14T21:36:49.252Z,9.80
2022-09-14T21:39:23.636Z,10.20
2022-09-14T21:41:58.084Z,9.60
2022-09-14T21:44:35.423Z,8.90
2022-09-14T21:47:04.381Z,10.00
2022-09-14T21:49:31.096Z,9.90
2022-09-14T21:51:57.857Z,8.80
2022-09-14T21:54:24.984Z,9.20
2022-09-14T21:56:53.925Z,9.70
2022-09-14T21:59:22.920Z,9.20
2022-09-14T22:01:49.931Z,8.90
2022-09-14T22:04:22.673Z,9.00
2022-09-14T22:06:51.635Z,9.30
2022-09-14T22:09:22.973Z,8.20
2022-09-14T22:11:49.798Z,8.00
2022-09-14T22:14:21.211Z,8.40
2022-09-14T22:16:49.478Z,8.10
2022-09-14T22:19:29.624Z,7.70
2022-09-14T22:21:57.347Z,7.70
2022-09-14T22:24:38.079Z,8.30
2022-09-14T22:27:11.019Z,8.60
2022-09-14T22:29:43.236Z,8.80
2022-09-14T22:32:12.407Z,7.30
2022-09-14T22:34:41.466Z,7.60
2022-09-14T22:37:09.273Z,7.90
2022-09-14T22:39:36.167Z,7.70
2022-09-14T22:42:02.986Z,7.10
2022-09-14T22:44:29.865Z,6.60
2022-09-14T22:46:57.800Z,7.40
2022-09-14T22:49:25.258Z,7.30
2022-09-14T22:51:51.941Z,7.50
2022-09-14T22:54:18.864Z,7.50
2022-09-14T22:56:45.620Z,6.80
2022-09-14T22:59:12.739Z,7.00
2022-09-14T23:01:42.074Z,6.50
2022-09-14T23:04:13.032Z,7.10
2022-09-14T23:06:47.518Z,7.20
2022-09-14T23:09:19.799Z,7.80
2022-09-14T23:11:47.105Z,7.50
2022-09-14T23:14:16.063Z,6.90
2022-09-14T23:16:45.431Z,6.20
2022-09-14T23:19:17.525Z,6.60
2022-09-14T23:21:45.680Z,6.80
2022-09-14T23:24:13.938Z,7.70
2022-09-14T23:26:41.564Z,6.60
2022-09-14T23:29:15.866Z,7.20
2022-09-14T23:31:43.944Z,6.70
2022-09-14T23:34:11.000Z,6.50
2022-09-14T23:36:37.717Z,6.60
2022-09-14T23:39:04.639Z,7.70
2022-09-14T23:41:31.581Z,7.40
2022-09-14T23:43:58.449Z,7.50
2022-09-14T23:46:25.666Z,7.70
2022-09-14T23:48:52.600Z,7.60
2022-09-14T23:51:19.796Z,7.70
2022-09-14T23:53:47.018Z,7.60
2022-09-14T23:56:14.879Z,6.40
2022-09-14T23:58:42.592Z,6.60
